createdAt,value
2022-08-18T00:01:05.251Z,70.30
2022-08-18T00:03:53.181Z,71.03
2022-08-18T00:06:20.437Z,71.45
2022-08-18T00:08:47.006Z,72.26
2022-08-18T00:11:13.643Z,72.72
2022-08-18T00:13:40.065Z,73.26
2022-08-18T00:16:06.885Z,74.50
2022-08-18T00:18:33.368Z,73.16
2022-08-18T00:21:00.253Z,73.86
2022-08-18T00:23:28.765Z,73.39
2022-08-18T00:25:55.617Z,74.03
2022-08-18T00:28:23.902Z,74.92
2022-08-18T00:30:54.154Z,74.43
2022-08-18T00:33:21.325Z,74.57
2022-08-18T00:35:48.513Z,74.21
2022-08-18T00:38:23.266Z,75.38
2022-08-18T00:40:53.295Z,75.76
2022-08-18T00:43:24.920Z,75.16
2022-08-18T00:45:51.439Z,74.99
2022-08-18T00:48:18.718Z,75.45
2022-08-18T00:50:49.454Z,75.08
2022-08-18T00:53:29.433Z,74.08
2022-08-18T00:56:00.306Z,75.77
2022-08-18T00:58:39.156Z,75.65
2022-08-18T01:01:08.667Z,75.39
2022-08-18T01:03:39.780Z,75.09
2022-08-18T01:06:21.644Z,74.57
2022-08-18T01:08:48.197Z,74.17
2022-08-18T01:11:15.125Z,74.13
2022-08-18T01:13:43.065Z,74.02
2022-08-18T01:16:28.696Z,73.79
2022-08-18T01:19:13.810Z,74.10
2022-08-18T01:21:52.171Z,73.88
2022-08-18T01:24:47.437Z,73.69
2022-08-18T01:27:18.196Z,73.74
2022-08-18T01:29:49.325Z,74.24
2022-08-18T01:32:19.700Z,74.90
2022-08-18T01:34:51.827Z,74.99
2022-08-18T01:37:22.364Z,75.39
2022-08-18T01:41:24.227Z,75.55
2022-08-18T01:42:38.573Z,75.04
2022-08-18T01:45:07.973Z,75.01
2022-08-18T01:47:48.042Z,74.92
2022-08-18T01:50:15.849Z,74.58
2022-08-18T01:52:42.380Z,74.26
2022-08-18T01:55:09.624Z,75.52
2022-08-18T01:57:45.092Z,77.04
2022-08-18T02:00:17.558Z,77.05
2022-08-18T02:02:44.859Z,76.84
2022-08-18T02:05:24.849Z,76.58
2022-08-18T02:07:54.069Z,76.65
2022-08-18T02:10:21.054Z,76.37
2022-08-18T02:12:47.657Z,76.48
2022-08-18T02:15:14.305Z,75.80
2022-08-18T02:17:43.207Z,75.69
2022-08-18T02:20:12.986Z,76.09
2022-08-18T02:22:39.715Z,75.87
2022-08-18T02:25:07.058Z,76.05
2022-08-18T02:27:34.180Z,76.29
2022-08-18T02:30:02.254Z,75.89
2022-08-18T02:32:29.408Z,75.66
2022-08-18T02:34:56.167Z,75.44
2022-08-18T02:37:22.999Z,75.74
2022-08-18T02:39:49.542Z,76.72
2022-08-18T02:42:16.307Z,77.09
2022-08-18T02:44:42.836Z,77.14
2022-08-18T02:47:09.445Z,77.87
2022-08-18T02:49:36.865Z,77.12
2022-08-18T02:52:03.866Z,77.20
2022-08-18T02:54:30.325Z,76.78
2022-08-18T02:56:57.436Z,77.07
2022-08-18T02:59:27.475Z,77.13
2022-08-18T03:01:56.061Z,76.88
2022-08-18T03:04:29.674Z,77.20
2022-08-18T03:06:59.747Z,76.85
2022-08-18T03:09:26.461Z,76.90
2022-08-18T03:11:53.553Z,77.11
2022-08-18T03:14:20.801Z,78.56
2022-08-18T03:16:54.240Z,78.78
2022-08-18T03:19:31.851Z,78.79
2022-08-18T03:22:03.023Z,78.67
2022-08-18T03:24:32.223Z,79.21
2022-08-18T03:26:59.318Z,79.00
2022-08-18T03:29:31.337Z,78.41
2022-08-18T03:32:04.071Z,78.27
2022-08-18T03:34:31.588Z,78.48
2022-08-18T03:36:58.891Z,78.02
2022-08-18T03:39:27.630Z,77.94
2022-08-18T03:42:01.200Z,77.56
2022-08-18T03:44:36.971Z,77.61
2022-08-18T03:47:07.566Z,77.59
2022-08-18T03:49:34.216Z,78.07
2022-08-18T03:52:01.412Z,79.49
2022-08-18T03:54:32.069Z,79.81
2022-08-18T03:57:00.198Z,79.85
2022-08-18T03:59:27.213Z,79.28
2022-08-18T04:01:55.320Z,78.87
2022-08-18T04:04:25.693Z,78.78
2022-08-18T04:07:14.474Z,78.54
2022-08-18T04:09:41.887Z,78.43
2022-08-18T04:12:16.974Z,78.33
2022-08-18T04:14:48.771Z,77.89
2022-08-18T04:17:25.946Z,77.82
2022-08-18T04:19:54.084Z,78.28
2022-08-18T04:22:21.042Z,78.32
2022-08-18T04:24:50.279Z,78.70
2022-08-18T04:27:17.911Z,78.88
2022-08-18T04:29:44.415Z,78.08
2022-08-18T04:32:11.009Z,77.27
2022-08-18T04:34:37.534Z,77.73
2022-08-18T04:37:05.499Z,78.78
2022-08-18T04:39:32.089Z,79.30
2022-08-18T04:41:59.332Z,78.58
2022-08-18T04:44:27.167Z,78.08
2022-08-18T04:46:54.321Z,77.09
2022-08-18T04:49:25.521Z,77.49
2022-08-18T04:52:36.138Z,78.19
2022-08-18T04:55:00.929Z,77.91
2022-08-18T04:57:28.562Z,77.29
2022-08-18T04:59:55.111Z,77.51
2022-08-18T05:02:22.131Z,77.62
2022-08-18T05:04:48.911Z,77.34
2022-08-18T05:07:19.032Z,77.71
2022-08-18T05:09:46.503Z,77.38
2022-08-18T05:12:15.395Z,77.20
2022-08-18T05:14:46.955Z,76.97
2022-08-18T05:17:15.048Z,77.00
2022-08-18T05:19:44.371Z,76.85
2022-08-18T05:22:17.754Z,76.60
2022-08-18T05:24:47.490Z,76.53
2022-08-18T05:27:14.534Z,76.52
2022-08-18T05:29:45.917Z,76.35
2022-08-18T05:32:30.836Z,76.24
2022-08-18T05:35:31.815Z,75.80
2022-08-18T05:38:22.613Z,75.43
2022-08-18T05:41:13.750Z,74.95
2022-08-18T05:43:51.744Z,75.65
2022-08-18T05:46:21.887Z,75.52
2022-08-18T05:48:48.643Z,75.41
2022-08-18T05:51:33.734Z,75.23
2022-08-18T05:54:21.039Z,75.41
2022-08-18T05:56:51.741Z,74.96
2022-08-18T05:59:21.569Z,75.26
2022-08-18T06:01:55.754Z,75.08
2022-08-18T06:04:57.021Z,74.30
2022-08-18T06:07:47.032Z,74.76
2022-08-18T06:10:14.941Z,75.21
2022-08-18T06:12:49.372Z,74.81
2022-08-18T06:15:24.124Z,74.04
2022-08-18T06:18:12.050Z,74.93
2022-08-18T06:20:45.907Z,74.76
2022-08-18T06:23:39.354Z,73.67
2022-08-18T06:26:18.094Z,74.36
2022-08-18T06:28:49.425Z,74.54
2022-08-18T06:31:40.744Z,73.82
2022-08-18T06:34:20.588Z,74.40
2022-08-18T06:37:08.249Z,73.67
2022-08-18T06:39:46.804Z,72.91
2022-08-18T06:42:17.746Z,73.26
2022-08-18T06:44:59.127Z,72.52
2022-08-18T06:47:54.691Z,72.17
2022-08-18T06:50:26.142Z,72.14
2022-08-18T06:52:54.439Z,72.27
2022-08-18T06:55:40.527Z,72.35
2022-08-18T06:58:13.561Z,73.06
2022-08-18T07:00:56.002Z,73.67
2022-08-18T07:03:54.855Z,72.56
2022-08-18T07:06:21.439Z,72.03
2022-08-18T07:08:54.604Z,72.06
2022-08-18T07:11:33.330Z,71.22
2022-08-18T07:14:17.059Z,71.88
2022-08-18T07:16:58.215Z,72.11
2022-08-18T07:19:29.958Z,71.29
2022-08-18T07:22:17.288Z,70.99
2022-08-18T07:24:47.770Z,70.08
2022-08-18T07:27:20.055Z,70.93
2022-08-18T07:30:06.151Z,71.06
2022-08-18T07:32:39.645Z,70.98
2022-08-18T07:35:09.186Z,69.34
2022-08-18T07:37:50.372Z,69.59
2022-08-18T07:40:52.168Z,69.62
2022-08-18T07:43:28.786Z,68.07
2022-08-18T07:46:06.010Z,66.73
2022-08-18T07:48:38.783Z,65.11
2022-08-18T07:51:24.461Z,64.82
2022-08-18T07:53:58.084Z,65.08
2022-08-18T07:56:44.254Z,65.46
2022-08-18T07:59:29.192Z,67.11
2022-08-18T08:02:10.542Z,68.54
2022-08-18T08:04:41.850Z,69.71
2022-08-18T08:07:24.760Z,69.55
2022-08-18T08:10:06.850Z,68.59
2022-08-18T08:12:50.314Z,68.20
2022-08-18T08:15:34.034Z,67.50
2022-08-18T08:18:17.302Z,67.85
2022-08-18T08:20:51.543Z,67.55
2022-08-18T08:23:33.370Z,67.39
2022-08-18T08:26:31.269Z,66.92
2022-08-18T08:29:36.467Z,67.79
2022-08-18T08:32:12.246Z,67.63
2022-08-18T08:34:45.794Z,67.31
2022-08-18T08:37:30.817Z,67.25
2022-08-18T08:40:15.836Z,66.68
2022-08-18T08:42:52.993Z,65.56
2022-08-18T08:45:30.604Z,65.62
2022-08-18T08:48:26.942Z,66.12
2022-08-18T08:50:53.357Z,65.35
2022-08-18T08:53:31.735Z,66.19
2022-08-18T08:56:02.958Z,66.58
2022-08-18T08:58:37.595Z,65.47
2022-08-18T09:01:05.720Z,66.45
2022-08-18T09:03:56.213Z,65.72
2022-08-18T09:06:34.955Z,64.30
2022-08-18T09:09:13.568Z,64.89
2022-08-18T09:11:51.940Z,63.74
2022-08-18T09:14:49.404Z,63.67
2022-08-18T09:17:50.699Z,62.88
2022-08-18T09:20:54.764Z,61.86
2022-08-18T09:23:26.125Z,60.54
2022-08-18T09:26:00.349Z,59.90
2022-08-18T09:28:29.944Z,59.86
2022-08-18T09:31:08.715Z,60.51
2022-08-18T09:33:45.301Z,61.03
2022-08-18T09:36:30.258Z,61.50
2022-08-18T09:39:38.446Z,60.10
2022-08-18T09:42:14.273Z,59.21
2022-08-18T09:44:48.535Z,58.13
2022-08-18T09:50:24.584Z,58.00
2022-08-18T09:53:02.397Z,57.99
2022-08-18T09:55:31.970Z,57.97
2022-08-18T09:58:20.138Z,58.11
2022-08-18T10:01:19.909Z,58.07
2022-08-18T10:04:15.829Z,57.96
2022-08-18T10:06:51.080Z,57.43
2022-08-18T10:09:36.290Z,56.57
2022-08-18T10:12:31.990Z,56.93
2022-08-18T10:15:37.503Z,57.22
2022-08-18T10:18:22.577Z,56.91
2022-08-18T10:21:22.804Z,57.41
2022-08-18T10:24:29.889Z,56.58
2022-08-18T10:26:54.257Z,56.77
2022-08-18T10:29:27.687Z,59.13
2022-08-18T10:31:57.408Z,58.84
2022-08-18T10:37:44.325Z,56.50
2022-08-18T10:40:14.076Z,56.29
2022-08-18T10:42:45.529Z,56.45
2022-08-18T10:45:31.603Z,56.82
2022-08-18T10:48:24.435Z,55.93
2022-08-18T10:51:09.110Z,55.47
2022-08-18T10:53:45.724Z,55.43
2022-08-18T10:56:31.722Z,56.18
2022-08-18T10:59:17.275Z,56.58
2022-08-18T11:02:18.625Z,57.93
2022-08-18T11:04:58.809Z,58.27
2022-08-18T11:07:30.961Z,57.82
2022-08-18T11:10:29.527Z,57.22
2022-08-18T11:13:07.365Z,57.36
2022-08-18T11:16:02.938Z,56.91
2022-08-18T11:18:38.980Z,56.64
2022-08-18T11:21:37.636Z,56.66
2022-08-18T11:24:13.989Z,56.87
2022-08-18T11:26:53.067Z,57.71
2022-08-18T11:29:34.116Z,57.64
2022-08-18T11:32:19.664Z,57.03
2022-08-18T11:34:59.868Z,57.33
2022-08-18T11:37:51.848Z,56.34
2022-08-18T11:41:02.361Z,57.00
2022-08-18T11:43:21.202Z,56.93
2022-08-18T11:45:48.195Z,56.49
2022-08-18T11:48:14.657Z,56.74
2022-08-18T11:50:54.561Z,57.03
2022-08-18T11:53:36.673Z,55.73
2022-08-18T11:56:14.459Z,55.01
2022-08-18T11:58:45.887Z,53.69
2022-08-18T12:01:41.531Z,52.70
2022-08-18T12:04:14.521Z,49.34
2022-08-18T12:06:59.906Z,48.33
2022-08-18T12:12:31.083Z,47.65
2022-08-18T12:15:25.522Z,47.76
2022-08-18T12:17:56.287Z,47.82
2022-08-18T12:20:22.968Z,46.34
2022-08-18T12:22:50.285Z,46.18
2022-08-18T12:25:24.825Z,45.42
2022-08-18T12:27:52.389Z,44.65
2022-08-18T12:30:19.922Z,43.63
2022-08-18T12:35:34.989Z,42.16
2022-08-18T12:38:04.882Z,43.46
2022-08-18T12:40:48.397Z,42.46
2022-08-18T12:43:14.875Z,42.09
2022-08-18T12:45:42.956Z,41.46
2022-08-18T12:48:09.599Z,40.89
2022-08-18T12:50:49.725Z,40.00
2022-08-18T12:53:30.587Z,40.89
2022-08-18T12:56:17.121Z,40.90
2022-08-18T12:58:46.308Z,40.92
2022-08-18T13:01:12.926Z,41.69
2022-08-18T13:03:45.349Z,41.08
2022-08-18T13:06:19.872Z,39.70
2022-08-18T13:08:50.121Z,37.53
2022-08-18T13:11:23.683Z,37.38
2022-08-18T13:13:56.098Z,37.30
2022-08-18T13:16:38.891Z,34.72
2022-08-18T13:19:13.145Z,31.64
2022-08-18T13:21:43.061Z,30.37
2022-08-18T13:24:10.444Z,30.06
2022-08-18T13:26:43.227Z,31.04
2022-08-18T13:29:14.192Z,30.89
2022-08-18T13:31:41.022Z,32.33
2022-08-18T13:34:19.326Z,33.40
2022-08-18T13:36:48.241Z,34.34
2022-08-18T13:39:20.291Z,32.53
2022-08-18T13:41:48.929Z,30.31
2022-08-18T13:44:18.641Z,29.88
2022-08-18T13:46:47.996Z,28.72
2022-08-18T13:49:29.943Z,30.04
2022-08-18T13:51:59.227Z,28.50
2022-08-18T13:54:35.256Z,29.88
2022-08-18T13:57:03.687Z,27.31
2022-08-18T13:59:34.171Z,27.34
2022-08-18T14:02:05.672Z,28.90
2022-08-18T14:04:36.168Z,30.86
2022-08-18T14:07:07.322Z,27.91
2022-08-18T14:09:38.042Z,25.76
2022-08-18T14:12:07.352Z,25.97
2022-08-18T14:14:42.734Z,25.74
2022-08-18T14:17:09.217Z,25.56
2022-08-18T14:19:54.147Z,24.88
2022-08-18T14:22:41.599Z,25.16
2022-08-18T14:25:28.080Z,27.25
2022-08-18T14:27:56.845Z,26.38
2022-08-18T14:30:23.852Z,29.00
2022-08-18T14:32:50.466Z,28.21
2022-08-18T14:35:33.361Z,28.48
2022-08-18T14:38:02.520Z,27.57
2022-08-18T14:40:31.500Z,29.55
2022-08-18T14:42:58.650Z,31.00
2022-08-18T14:45:31.574Z,31.25
2022-08-18T14:48:06.651Z,29.24
2022-08-18T14:50:35.055Z,28.13
2022-08-18T14:53:01.745Z,27.18
2022-08-18T14:55:28.266Z,27.17
2022-08-18T14:57:59.400Z,26.77
2022-08-18T15:00:27.829Z,27.83
2022-08-18T15:02:54.580Z,26.74
2022-08-18T15:05:24.202Z,26.76
2022-08-18T15:07:51.746Z,27.77
2022-08-18T15:10:19.896Z,27.71
2022-08-18T15:12:50.317Z,28.46
2022-08-18T15:15:18.377Z,27.50
2022-08-18T15:17:45.401Z,28.85
2022-08-18T15:20:19.169Z,30.21
2022-08-18T15:23:04.844Z,30.76
2022-08-18T15:25:44.814Z,29.37
2022-08-18T15:28:23.720Z,30.08
2022-08-18T15:31:16.596Z,29.14
2022-08-18T15:33:39.276Z,29.09
2022-08-18T15:36:09.741Z,28.79
2022-08-18T15:38:37.299Z,28.91
2022-08-18T15:41:06.129Z,29.72
2022-08-18T15:43:45.818Z,29.43
2022-08-18T15:46:14.035Z,28.91
2022-08-18T15:48:43.612Z,29.50
2022-08-18T15:51:12.159Z,30.73
2022-08-18T15:53:44.445Z,33.09
2022-08-18T15:56:20.989Z,34.11
2022-08-18T15:58:48.188Z,34.72
2022-08-18T16:01:30.410Z,36.47
2022-08-18T16:03:59.668Z,36.92
2022-08-18T16:06:27.528Z,37.91
2022-08-18T16:08:54.957Z,38.67
2022-08-18T16:11:28.935Z,39.46
2022-08-18T16:13:58.618Z,40.64
2022-08-18T16:16:29.347Z,41.18
2022-08-18T16:19:04.168Z,41.69
2022-08-18T16:21:30.697Z,42.12
2022-08-18T16:23:57.115Z,41.96
2022-08-18T16:26:23.892Z,42.20
2022-08-18T16:28:52.308Z,42.87
2022-08-18T16:31:24.826Z,44.13
2022-08-18T16:33:53.434Z,45.31
2022-08-18T16:36:20.521Z,45.96
2022-08-18T16:38:47.293Z,46.29
2022-08-18T16:41:15.841Z,46.82
2022-08-18T16:43:44.612Z,47.21
2022-08-18T16:46:23.126Z,47.68
2022-08-18T16:48:49.828Z,47.42
2022-08-18T16:51:19.773Z,48.57
2022-08-18T16:53:47.424Z,48.87
2022-08-18T16:56:19.337Z,48.40
2022-08-18T16:59:05.269Z,49.65
2022-08-18T17:01:52.068Z,50.36
2022-08-18T17:04:22.449Z,50.01
2022-08-18T17:06:50.097Z,49.49
2022-08-18T17:09:18.588Z,49.76
2022-08-18T17:11:47.972Z,50.29
2022-08-18T17:14:19.826Z,50.73
2022-08-18T17:16:49.079Z,50.60
2022-08-18T17:19:15.548Z,50.67
2022-08-18T17:21:42.011Z,50.63
2022-08-18T17:24:10.565Z,50.40
2022-08-18T17:26:53.240Z,50.41
2022-08-18T17:29:43.512Z,50.84
2022-08-18T17:32:20.126Z,50.69
2022-08-18T17:34:51.860Z,50.79
2022-08-18T17:37:23.150Z,50.80
2022-08-18T17:39:57.529Z,50.72
2022-08-18T17:42:26.835Z,51.02
2022-08-18T17:44:59.059Z,51.10
2022-08-18T17:47:33.267Z,50.90
2022-08-18T17:50:28.764Z,52.39
2022-08-18T17:53:07.393Z,53.18
2022-08-18T17:55:49.728Z,54.20
2022-08-18T17:58:42.153Z,54.31
2022-08-18T18:01:10.441Z,54.36
2022-08-18T18:03:38.004Z,55.17
2022-08-18T18:06:18.475Z,56.87
2022-08-18T18:08:49.453Z,56.99
2022-08-18T18:11:15.917Z,57.07
2022-08-18T18:13:42.464Z,57.48
2022-08-18T18:16:36.156Z,57.42
2022-08-18T18:19:06.102Z,58.38
2022-08-18T18:22:00.504Z,56.83
2022-08-18T18:24:30.647Z,59.42
2022-08-18T18:26:57.105Z,62.19
2022-08-18T18:29:35.698Z,62.91
2022-08-18T18:32:24.714Z,64.87
2022-08-18T18:35:12.307Z,65.61
2022-08-18T18:37:49.051Z,66.26
2022-08-18T18:40:24.137Z,67.78
2022-08-18T18:42:51.117Z,68.93
2022-08-18T18:45:36.017Z,68.32
2022-08-18T18:48:38.686Z,68.33
2022-08-18T18:51:19.306Z,67.99
2022-08-18T18:54:12.739Z,68.46
2022-08-18T18:56:45.630Z,68.31
2022-08-18T18:59:15.046Z,68.75
2022-08-18T19:01:55.536Z,69.21
2022-08-18T19:04:39.295Z,69.62
2022-08-18T19:07:26.247Z,71.90
2022-08-18T19:10:18.568Z,72.42
2022-08-18T19:12:56.934Z,72.06
2022-08-18T19:15:25.576Z,71.77
2022-08-18T19:18:00.479Z,71.16
2022-08-18T19:20:39.357Z,71.79
2022-08-18T19:23:34.228Z,71.24
2022-08-18T19:26:18.895Z,71.62
2022-08-18T19:29:12.796Z,73.48
2022-08-18T19:31:40.634Z,73.30
2022-08-18T19:34:12.472Z,73.62
2022-08-18T19:36:48.823Z,74.40
2022-08-18T19:39:26.628Z,73.71
2022-08-18T19:42:02.342Z,73.57
2022-08-18T19:44:34.943Z,73.68
2022-08-18T19:47:27.967Z,74.09
2022-08-18T19:50:13.667Z,74.93
2022-08-18T19:53:01.736Z,75.73
2022-08-18T19:55:47.402Z,75.59
2022-08-18T19:58:37.718Z,75.28
2022-08-18T20:01:20.999Z,75.36
2022-08-18T20:04:09.496Z,75.13
2022-08-18T20:06:49.924Z,74.80
2022-08-18T20:09:28.427Z,74.73
2022-08-18T20:12:04.400Z,74.46
2022-08-18T20:14:39.072Z,74.28
2022-08-18T20:17:23.593Z,75.27
2022-08-18T20:19:59.122Z,74.45
2022-08-18T20:22:32.272Z,74.32
2022-08-18T20:25:19.824Z,74.47
2022-08-18T20:28:12.881Z,73.71
2022-08-18T20:30:58.365Z,73.35
2022-08-18T20:33:25.812Z,72.69
2022-08-18T20:35:58.295Z,72.82
2022-08-18T20:38:31.593Z,72.95
2022-08-18T20:40:59.890Z,72.99
2022-08-18T20:43:32.820Z,73.48
2022-08-18T20:46:20.119Z,74.04
2022-08-18T20:49:06.893Z,74.29
2022-08-18T20:51:43.780Z,74.39
2022-08-18T20:54:39.754Z,75.53
2022-08-18T20:57:24.638Z,76.15
2022-08-18T20:59:58.514Z,76.55
2022-08-18T21:02:35.001Z,76.26
2022-08-18T21:05:02.122Z,76.48
2022-08-18T21:07:38.025Z,76.80
2022-08-18T21:10:18.449Z,77.52
2022-08-18T21:12:52.168Z,77.24
2022-08-18T21:15:25.612Z,77.13
2022-08-18T21:18:04.608Z,76.82
2022-08-18T21:20:33.033Z,76.63
2022-08-18T21:23:11.641Z,77.05
2022-08-18T21:25:54.487Z,77.85
2022-08-18T21:28:22.668Z,78.26
2022-08-18T21:31:30.813Z,77.26
2022-08-18T21:33:49.774Z,77.29
2022-08-18T21:36:18.727Z,77.84
2022-08-18T21:39:06.240Z,77.86
2022-08-18T21:41:39.314Z,77.25
2022-08-18T21:44:16.686Z,76.35
2022-08-18T21:46:45.564Z,76.50
2022-08-18T21:49:12.301Z,76.50
2022-08-18T21:51:46.321Z,76.09
2022-08-18T21:54:21.117Z,75.91
2022-08-18T21:56:50.946Z,76.37
2022-08-18T21:59:20.580Z,76.65
2022-08-18T22:01:56.605Z,76.97
2022-08-18T22:04:33.574Z,77.07
2022-08-18T22:07:03.926Z,76.69
2022-08-18T22:09:51.894Z,75.49
2022-08-18T22:12:42.933Z,75.26
2022-08-18T22:15:36.859Z,75.85
2022-08-18T22:18:03.285Z,75.98
2022-08-18T22:20:44.509Z,76.26
2022-08-18T22:23:32.296Z,76.59
2022-08-18T22:26:26.307Z,76.67
2022-08-18T22:28:58.782Z,76.28
2022-08-18T22:31:29.340Z,73.91
2022-08-18T22:33:56.649Z,73.16
2022-08-18T22:36:28.586Z,72.58
2022-08-18T22:38:55.598Z,72.62
2022-08-18T22:41:22.332Z,72.34
2022-08-18T22:43:54.632Z,73.42
2022-08-18T22:46:24.225Z,74.06
2022-08-18T22:48:52.276Z,74.57
2022-08-18T22:51:23.664Z,75.11
2022-08-18T22:53:50.691Z,75.29
2022-08-18T22:56:33.936Z,75.50
2022-08-18T22:59:09.693Z,76.36
2022-08-18T23:01:41.598Z,76.29
2022-08-18T23:04:08.124Z,76.40
2022-08-18T23:06:34.937Z,76.18
2022-08-18T23:09:02.331Z,76.10
2022-08-18T23:11:29.167Z,75.73
2022-08-18T23:13:56.268Z,75.83
2022-08-18T23:16:31.209Z,76.35
2022-08-18T23:19:02.041Z,76.15
2022-08-18T23:21:34.452Z,76.36
2022-08-18T23:24:03.817Z,76.44
2022-08-18T23:26:30.555Z,76.46
2022-08-18T23:28:57.636Z,76.68
2022-08-18T23:31:24.111Z,76.43
2022-08-18T23:33:50.608Z,76.39
2022-08-18T23:36:17.819Z,75.84
2022-08-18T23:38:44.677Z,75.64
2022-08-18T23:41:13.189Z,76.02
2022-08-18T23:43:39.820Z,76.45
2022-08-18T23:46:16.933Z,76.38
2022-08-18T23:48:49.592Z,76.85
2022-08-18T23:51:36.993Z,76.92
2022-08-18T23:54:07.285Z,77.00
2022-08-18T23:56:35.139Z,76.24
2022-08-18T23:59:02.377Z,76.27
